sensor_id;sensor_type;location;lat;lon;timestamp;pressure;altitude;pressure_sealevel;temperature;humidity
1926;BME280;964;42.606;23.588;2023-04-04T00:01:13;93070.41;;;30.55;27.17
1926;BME280;964;42.606;23.588;2023-04-04T00:03:41;93078.22;;;30.40;27.40
1926;BME280;964;42.606;23.588;2023-04-04T00:06:07;93068.56;;;30.63;27.22
1926;BME280;964;42.606;23.588;2023-04-04T00:08:34;93066.56;;;30.64;27.39
1926;BME280;964;42.606;23.588;2023-04-04T00:11:02;93074.25;;;30.65;27.21
1926;BME280;964;42.606;23.588;2023-04-04T00:13:31;93081.22;;;30.42;27.42
1926;BME280;964;42.606;23.588;2023-04-04T00:15:58;93084.66;;;30.48;27.27
1926;BME280;964;42.606;23.588;2023-04-04T00:18:25;93081.22;;;30.42;27.58
1926;BME280;964;42.606;23.588;2023-04-04T00:20:51;93087.19;;;30.41;27.77
1926;BME280;964;42.606;23.588;2023-04-04T00:23:18;93088.16;;;29.84;28.10
1926;BME280;964;42.606;23.588;2023-04-04T00:25:48;93076.50;;;30.13;27.97
1926;BME280;964;42.606;23.588;2023-04-04T00:28:16;93083.63;;;30.51;27.38
1926;BME280;964;42.606;23.588;2023-04-04T00:30:43;93085.34;;;29.95;28.05
1926;BME280;964;42.606;23.588;2023-04-04T00:33:09;93078.38;;;29.58;28.42
1926;BME280;964;42.606;23.588;2023-04-04T00:35:36;93064.88;;;30.31;27.67
1926;BME280;964;42.606;23.588;2023-04-04T00:38:03;93065.75;;;29.55;28.78
1926;BME280;964;42.606;23.588;2023-04-04T00:40:29;93058.06;;;30.19;27.89
1926;BME280;964;42.606;23.588;2023-04-04T00:42:58;93045.88;;;30.20;28.05
1926;BME280;964;42.606;23.588;2023-04-04T00:45:26;93052.25;;;29.33;28.81
1926;BME280;964;42.606;23.588;2023-04-04T00:47:54;93046.22;;;28.99;29.35
1926;BME280;964;42.606;23.588;2023-04-04T00:50:21;93048.13;;;28.52;30.20
1926;BME280;964;42.606;23.588;2023-04-04T00:52:48;93029.78;;;28.58;30.09
1926;BME280;964;42.606;23.588;2023-04-04T00:55:15;93039.75;;;28.45;29.99
1926;BME280;964;42.606;23.588;2023-04-04T00:57:41;93045.19;;;28.39;30.30
1926;BME280;964;42.606;23.588;2023-04-04T01:00:09;93053.13;;;27.26;31.74
1926;BME280;964;42.606;23.588;2023-04-04T01:02:38;93043.53;;;28.08;30.79
1926;BME280;964;42.606;23.588;2023-04-04T01:05:06;93052.19;;;27.62;31.37
1926;BME280;964;42.606;23.588;2023-04-04T01:07:33;93059.75;;;27.03;32.23
1926;BME280;964;42.606;23.588;2023-04-04T01:10:01;93049.31;;;28.73;30.06
1926;BME280;964;42.606;23.588;2023-04-04T01:12:28;93044.03;;;27.90;31.19
1926;BME280;964;42.606;23.588;2023-04-04T01:14:55;93042.78;;;27.52;31.61
1926;BME280;964;42.606;23.588;2023-04-04T01:17:23;93043.50;;;28.31;30.39
1926;BME280;964;42.606;23.588;2023-04-04T01:19:58;93054.91;;;27.73;31.16
1926;BME280;964;42.606;23.588;2023-04-04T01:22:27;93042.22;;;28.37;30.39
1926;BME280;964;42.606;23.588;2023-04-04T01:24:56;93059.94;;;25.98;33.65
1926;BME280;964;42.606;23.588;2023-04-04T01:27:25;93041.06;;;27.77;31.49
1926;BME280;964;42.606;23.588;2023-04-04T01:29:51;93041.31;;;27.62;31.63
1926;BME280;964;42.606;23.588;2023-04-04T01:32:20;93033.84;;;28.30;30.87
1926;BME280;964;42.606;23.588;2023-04-04T01:34:53;93048.88;;;26.49;33.41
1926;BME280;964;42.606;23.588;2023-04-04T01:37:27;93042.78;;;27.52;31.84
1926;BME280;964;42.606;23.588;2023-04-04T01:39:59;93046.00;;;27.90;31.33
1926;BME280;964;42.606;23.588;2023-04-04T01:42:30;93042.50;;;28.06;30.83
1926;BME280;964;42.606;23.588;2023-04-04T01:44:57;93051.41;;;27.34;31.72
1926;BME280;964;42.606;23.588;2023-04-04T01:47:24;93040.69;;;28.58;30.35
1926;BME280;964;42.606;23.588;2023-04-04T01:49:50;93036.28;;;29.48;29.29
1926;BME280;964;42.606;23.588;2023-04-04T01:52:18;93040.38;;;29.25;29.58
1926;BME280;964;42.606;23.588;2023-04-04T01:54:45;93037.22;;;30.16;28.29
1926;BME280;964;42.606;23.588;2023-04-04T01:57:12;93043.56;;;28.83;29.68
1926;BME280;964;42.606;23.588;2023-04-04T01:59:40;93042.78;;;27.74;31.62
1926;BME280;964;42.606;23.588;2023-04-04T02:02:07;93052.19;;;28.18;31.04
1926;BME280;964;42.606;23.588;2023-04-04T02:04:34;93049.47;;;28.12;30.97
1926;BME280;964;42.606;23.588;2023-04-04T02:07:01;93054.53;;;26.94;32.54
1926;BME280;964;42.606;23.588;2023-04-04T02:09:28;93040.25;;;28.32;31.29
1926;BME280;964;42.606;23.588;2023-04-04T02:11:55;93043.03;;;28.15;31.23
1926;BME280;964;42.606;23.588;2023-04-04T02:14:22;93042.28;;;27.76;31.91
1926;BME280;964;42.606;23.588;2023-04-04T02:16:50;93055.66;;;27.68;31.87
1926;BME280;964;42.606;23.588;2023-04-04T02:19:17;93046.50;;;28.10;31.36
1926;BME280;964;42.606;23.588;2023-04-04T02:21:44;93040.25;;;29.06;29.97
1926;BME280;964;42.606;23.588;2023-04-04T02:24:11;93047.97;;;27.95;31.68
1926;BME280;964;42.606;23.588;2023-04-04T02:26:38;93042.59;;;28.74;30.64
1926;BME280;964;42.606;23.588;2023-04-04T02:29:04;93024.47;;;30.00;28.79
1926;BME280;964;42.606;23.588;2023-04-04T02:31:32;93039.94;;;29.92;28.63
1926;BME280;964;42.606;23.588;2023-04-04T02:34:00;93043.13;;;28.62;30.51
1926;BME280;964;42.606;23.588;2023-04-04T02:36:26;93039.44;;;29.11;29.56
1926;BME280;964;42.606;23.588;2023-04-04T02:38:53;93041.72;;;29.48;28.97
1926;BME280;964;42.606;23.588;2023-04-04T02:41:20;93034.69;;;29.58;29.09
1926;BME280;964;42.606;23.588;2023-04-04T02:43:47;93037.59;;;28.90;29.72
1926;BME280;964;42.606;23.588;2023-04-04T02:46:14;93037.75;;;28.45;30.55
1926;BME280;964;42.606;23.588;2023-04-04T02:48:40;93037.31;;;28.30;30.89
1926;BME280;964;42.606;23.588;2023-04-04T02:51:08;93041.53;;;27.42;31.65
1926;BME280;964;42.606;23.588;2023-04-04T02:53:35;93045.47;;;27.41;31.37
1926;BME280;964;42.606;23.588;2023-04-04T02:56:02;93044.28;;;27.98;31.10
1926;BME280;964;42.606;23.588;2023-04-04T02:58:30;93031.44;;;28.84;29.83
1926;BME280;964;42.606;23.588;2023-04-04T03:00:57;93033.72;;;28.57;30.28
1926;BME280;964;42.606;23.588;2023-04-04T03:03:23;93037.84;;;29.38;29.29
1926;BME280;964;42.606;23.588;2023-04-04T03:05:50;93032.41;;;28.86;29.78
1926;BME280;964;42.606;23.588;2023-04-04T03:08:18;93037.84;;;27.90;30.89
1926;BME280;964;42.606;23.588;2023-04-04T03:10:45;93038.72;;;29.11;29.72
1926;BME280;964;42.606;23.588;2023-04-04T03:13:12;93032.56;;;29.05;29.46
1926;BME280;964;42.606;23.588;2023-04-04T03:15:38;93032.75;;;28.49;30.21
1926;BME280;964;42.606;23.588;2023-04-04T03:18:06;93035.03;;;28.45;30.39
1926;BME280;964;42.606;23.588;2023-04-04T03:20:33;93046.50;;;27.66;31.03
1926;BME280;964;42.606;23.588;2023-04-04T03:22:59;93054.09;;;26.47;33.47
1926;BME280;964;42.606;23.588;2023-04-04T03:25:28;93050.13;;;27.13;32.20
1926;BME280;964;42.606;23.588;2023-04-04T03:27:54;93041.69;;;28.55;30.59
1926;BME280;964;42.606;23.588;2023-04-04T03:30:21;93033.72;;;28.57;30.21
1926;BME280;964;42.606;23.588;2023-04-04T03:32:48;93037.94;;;28.58;30.52
1926;BME280;964;42.606;23.588;2023-04-04T03:35:15;93031.63;;;28.91;29.93
1926;BME280;964;42.606;23.588;2023-04-04T03:37:42;93032.81;;;29.07;29.81
1926;BME280;964;42.606;23.588;2023-04-04T03:40:09;93032.75;;;28.49;29.76
1926;BME280;964;42.606;23.588;2023-04-04T03:42:37;93032.50;;;29.16;29.37
1926;BME280;964;42.606;23.588;2023-04-04T03:45:04;93031.19;;;28.82;29.64
1926;BME280;964;42.606;23.588;2023-04-04T03:47:31;93018.16;;;29.10;29.17
1926;BME280;964;42.606;23.588;2023-04-04T03:49:58;93015.88;;;28.62;29.78
1926;BME280;964;42.606;23.588;2023-04-04T03:52:25;93012.28;;;28.95;29.50
1926;BME280;964;42.606;23.588;2023-04-04T03:54:52;93014.78;;;29.34;28.81
1926;BME280;964;42.606;23.588;2023-04-04T03:57:19;93006.47;;;29.86;28.16
1926;BME280;964;42.606;23.588;2023-04-04T03:59:47;93004.97;;;29.85;28.43
1926;BME280;964;42.606;23.588;2023-04-04T04:02:13;93005.00;;;30.09;28.22
1926;BME280;964;42.606;23.588;2023-04-04T04:04:40;93010.22;;;30.31;28.23
1926;BME280;964;42.606;23.588;2023-04-04T04:07:07;93004.31;;;30.27;28.21
1926;BME280;964;42.606;23.588;2023-04-04T04:09:33;93004.09;;;30.25;27.95
1926;BME280;964;42.606;23.588;2023-04-04T04:12:00;93000.69;;;30.43;27.79
1926;BME280;964;42.606;23.588;2023-04-04T04:17:50;93016.84;;;30.17;28.08
1926;BME280;964;42.606;23.588;2023-04-04T04:20:17;93028.34;;;30.10;28.21
1926;BME280;964;42.606;23.588;2023-04-04T04:22:44;93024.25;;;30.46;27.78
1926;BME280;964;42.606;23.588;2023-04-04T04:25:11;93027.91;;;30.54;27.91
1926;BME280;964;42.606;23.588;2023-04-04T04:27:38;93029.84;;;30.59;27.83
1926;BME280;964;42.606;23.588;2023-04-04T04:30:24;93040.94;;;30.67;27.55
1926;BME280;964;42.606;23.588;2023-04-04T04:32:52;93038.84;;;30.54;27.99
1926;BME280;964;42.606;23.588;2023-04-04T04:35:19;93041.34;;;30.52;27.84
1926;BME280;964;42.606;23.588;2023-04-04T04:37:45;93036.75;;;30.60;27.78
1926;BME280;964;42.606;23.588;2023-04-04T04:40:12;93030.22;;;30.88;27.69
1926;BME280;964;42.606;23.588;2023-04-04T04:42:43;93036.56;;;31.01;27.25
1926;BME280;964;42.606;23.588;2023-04-04T04:45:10;93045.31;;;30.94;27.60
1926;BME280;964;42.606;23.588;2023-04-04T04:47:37;93042.84;;;30.72;27.94
1926;BME280;964;42.606;23.588;2023-04-04T04:50:06;93046.59;;;31.12;27.26
1926;BME280;964;42.606;23.588;2023-04-04T04:52:35;93043.81;;;30.99;27.54
1926;BME280;964;42.606;23.588;2023-04-04T04:55:02;93051.63;;;30.41;28.16
1926;BME280;964;42.606;23.588;2023-04-04T04:57:29;93054.13;;;30.87;27.59
1926;BME280;964;42.606;23.588;2023-04-04T04:59:56;93057.75;;;30.52;27.97
1926;BME280;964;42.606;23.588;2023-04-04T05:02:22;93058.00;;;31.16;27.38
1926;BME280;964;42.606;23.588;2023-04-04T05:04:49;93056.94;;;30.82;27.63
1926;BME280;964;42.606;23.588;2023-04-04T05:07:17;93063.69;;;30.56;27.89
1926;BME280;964;42.606;23.588;2023-04-04T05:09:43;93069.09;;;31.05;27.75
1926;BME280;964;42.606;23.588;2023-04-04T05:12:10;93067.38;;;31.02;27.67
1926;BME280;964;42.606;23.588;2023-04-04T05:14:37;93071.63;;;31.03;27.52
1926;BME280;964;42.606;23.588;2023-04-04T05:17:03;93077.47;;;30.45;27.82
1926;BME280;964;42.606;23.588;2023-04-04T05:19:30;93083.69;;;30.89;27.76
1926;BME280;964;42.606;23.588;2023-04-04T05:21:57;93078.84;;;31.19;27.17
1926;BME280;964;42.606;23.588;2023-04-04T05:24:25;93082.72;;;30.86;27.89
1926;BME280;964;42.606;23.588;2023-04-04T05:26:52;93081.19;;;30.91;27.63
1926;BME280;964;42.606;23.588;2023-04-04T05:29:19;93093.63;;;30.13;28.35
1926;BME280;964;42.606;23.588;2023-04-04T05:31:46;93088.19;;;31.29;27.27
1926;BME280;964;42.606;23.588;2023-04-04T05:34:12;93085.97;;;31.46;27.25
1926;BME280;964;42.606;23.588;2023-04-04T05:36:39;93096.03;;;31.20;27.55
1926;BME280;964;42.606;23.588;2023-04-04T05:39:07;93102.09;;;31.31;27.06
1926;BME280;964;42.606;23.588;2023-04-04T05:41:35;93096.31;;;31.16;27.55
1926;BME280;964;42.606;23.588;2023-04-04T05:44:02;93095.13;;;30.44;28.24
1926;BME280;964;42.606;23.588;2023-04-04T05:46:29;93089.53;;;31.04;27.43
1926;BME280;964;42.606;23.588;2023-04-04T05:48:55;93088.94;;;31.11;27.25
1926;BME280;964;42.606;23.588;2023-04-04T05:51:22;93091.03;;;30.56;27.73
1926;BME280;964;42.606;23.588;2023-04-04T05:53:49;93090.69;;;30.36;28.12
1926;BME280;964;42.606;23.588;2023-04-04T05:56:16;93095.84;;;30.69;27.91
1926;BME280;964;42.606;23.588;2023-04-04T05:58:44;93100.50;;;29.55;29.36
1926;BME280;964;42.606;23.588;2023-04-04T06:01:11;93095.59;;;29.83;28.90
1926;BME280;964;42.606;23.588;2023-04-04T06:03:37;93093.25;;;30.28;28.94
1926;BME280;964;42.606;23.588;2023-04-04T06:06:04;93089.72;;;31.06;27.50
1926;BME280;964;42.606;23.588;2023-04-04T06:08:31;93097.66;;;30.61;28.30
1926;BME280;964;42.606;23.588;2023-04-04T06:10:57;93100.69;;;31.06;27.42
1926;BME280;964;42.606;23.588;2023-04-04T06:13:24;93103.75;;;30.73;27.86
1926;BME280;964;42.606;23.588;2023-04-04T06:15:52;93094.91;;;30.67;27.43
1926;BME280;964;42.606;23.588;2023-04-04T06:18:19;93111.63;;;30.57;27.87
1926;BME280;964;42.606;23.588;2023-04-04T06:20:55;93102.41;;;31.46;26.98
1926;BME280;964;42.606;23.588;2023-04-04T06:23:21;93106.22;;;31.19;27.23
1926;BME280;964;42.606;23.588;2023-04-04T06:25:48;93111.78;;;30.41;28.31
1926;BME280;964;42.606;23.588;2023-04-04T06:28:15;93113.47;;;30.74;27.39
1926;BME280;964;42.606;23.588;2023-04-04T06:30:43;93115.56;;;31.10;27.15
1926;BME280;964;42.606;23.588;2023-04-04T06:33:11;93124.31;;;29.95;28.63
1926;BME280;964;42.606;23.588;2023-04-04T06:35:38;93115.84;;;31.07;27.43
1926;BME280;964;42.606;23.588;2023-04-04T06:38:04;93128.09;;;30.22;28.15
1926;BME280;964;42.606;23.588;2023-04-04T06:40:31;93128.28;;;30.00;28.80
1926;BME280;964;42.606;23.588;2023-04-04T06:42:58;93122.47;;;30.93;27.59
1926;BME280;964;42.606;23.588;2023-04-04T06:45:24;93131.91;;;30.43;27.73
1926;BME280;964;42.606;23.588;2023-04-04T06:47:52;93134.88;;;30.45;28.30
1926;BME280;964;42.606;23.588;2023-04-04T06:50:20;93143.19;;;30.58;28.24
1926;BME280;964;42.606;23.588;2023-04-04T06:52:47;93143.88;;;31.13;27.36
1926;BME280;964;42.606;23.588;2023-04-04T06:55:14;93141.63;;;30.09;28.36
1926;BME280;964;42.606;23.588;2023-04-04T06:57:41;93149.47;;;30.78;27.51
1926;BME280;964;42.606;23.588;2023-04-04T07:00:09;93166.06;;;29.96;28.94
1926;BME280;964;42.606;23.588;2023-04-04T07:02:36;93162.97;;;30.40;27.69
1926;BME280;964;42.606;23.588;2023-04-04T07:05:03;93173.59;;;30.49;28.19
1926;BME280;964;42.606;23.588;2023-04-04T07:07:31;93161.41;;;31.23;27.02
1926;BME280;964;42.606;23.588;2023-04-04T07:09:57;93165.78;;;31.56;26.75
1926;BME280;964;42.606;23.588;2023-04-04T07:12:24;93169.56;;;31.72;27.41
1926;BME280;964;42.606;23.588;2023-04-04T07:14:51;93170.50;;;31.93;26.47
1926;BME280;964;42.606;23.588;2023-04-04T07:17:18;93190.72;;;30.20;28.43
1926;BME280;964;42.606;23.588;2023-04-04T07:19:44;93187.69;;;31.56;27.18
1926;BME280;964;42.606;23.588;2023-04-04T07:22:11;93175.09;;;32.35;26.91
1926;BME280;964;42.606;23.588;2023-04-04T07:24:40;93175.63;;;32.66;26.08
1926;BME280;964;42.606;23.588;2023-04-04T07:27:07;93187.59;;;32.49;26.11
1926;BME280;964;42.606;23.588;2023-04-04T07:29:34;93206.28;;;30.90;27.65
1926;BME280;964;42.606;23.588;2023-04-04T07:32:01;93246.47;;;26.80;31.74
1926;BME280;964;42.606;23.588;2023-04-04T07:34:27;93264.03;;;26.53;30.50
1926;BME280;964;42.606;23.588;2023-04-04T07:36:54;93262.72;;;26.74;30.25
1926;BME280;964;42.606;23.588;2023-04-04T07:39:21;93266.69;;;25.50;31.72
1926;BME280;964;42.606;23.588;2023-04-04T07:41:49;93269.56;;;26.33;30.69
1926;BME280;964;42.606;23.588;2023-04-04T07:44:16;93274.31;;;25.66;31.05
1926;BME280;964;42.606;23.588;2023-04-04T07:46:42;93278.47;;;25.47;30.95
1926;BME280;964;42.606;23.588;2023-04-04T07:49:09;93286.41;;;24.31;32.46
1926;BME280;964;42.606;23.588;2023-04-04T07:51:36;93280.75;;;24.94;32.34
1926;BME280;964;42.606;23.588;2023-04-04T07:54:04;93300.13;;;24.28;32.83
1926;BME280;964;42.606;23.588;2023-04-04T07:56:30;93300.53;;;24.12;32.49
1926;BME280;964;42.606;23.588;2023-04-04T07:58:59;93302.09;;;24.27;32.05
1926;BME280;964;42.606;23.588;2023-04-04T08:01:25;93295.25;;;25.11;30.82
1926;BME280;964;42.606;23.588;2023-04-04T08:03:52;93309.69;;;24.00;31.55
1926;BME280;964;42.606;23.588;2023-04-04T08:06:19;93315.91;;;24.15;31.70
1926;BME280;964;42.606;23.588;2023-04-04T08:08:45;93317.13;;;24.14;31.32
1926;BME280;964;42.606;23.588;2023-04-04T08:11:12;93322.75;;;22.82;32.35
1926;BME280;964;42.606;23.588;2023-04-04T08:13:39;93328.47;;;23.32;32.64
1926;BME280;964;42.606;23.588;2023-04-04T08:16:08;93314.88;;;22.93;32.33
1926;BME280;964;42.606;23.588;2023-04-04T08:18:34;93318.63;;;22.96;32.54
1926;BME280;964;42.606;23.588;2023-04-04T08:21:01;93321.69;;;22.29;33.52
1926;BME280;964;42.606;23.588;2023-04-04T08:23:28;93309.97;;;23.16;32.06
1926;BME280;964;42.606;23.588;2023-04-04T08:25:55;93324.81;;;22.36;33.14
1926;BME280;964;42.606;23.588;2023-04-04T08:28:24;93323.41;;;23.25;31.92
1926;BME280;964;42.606;23.588;2023-04-04T08:30:51;93328.94;;;22.56;33.19
1926;BME280;964;42.606;23.588;2023-04-04T08:33:20;93330.97;;;24.07;31.19
1926;BME280;964;42.606;23.588;2023-04-04T08:35:47;93334.06;;;23.05;32.10
1926;BME280;964;42.606;23.588;2023-04-04T08:38:14;93344.47;;;22.28;33.61
1926;BME280;964;42.606;23.588;2023-04-04T08:40:45;93341.75;;;22.97;32.36
1926;BME280;964;42.606;23.588;2023-04-04T08:43:13;93346.06;;;23.04;32.10
1926;BME280;964;42.606;23.588;2023-04-04T08:45:42;93351.19;;;23.58;31.69
1926;BME280;964;42.606;23.588;2023-04-04T08:48:10;93349.31;;;22.84;32.58
1926;BME280;964;42.606;23.588;2023-04-04T08:50:40;93358.88;;;21.97;32.74
1926;BME280;964;42.606;23.588;2023-04-04T08:53:08;93364.53;;;22.45;32.00
1926;BME280;964;42.606;23.588;2023-04-04T08:55:36;93351.88;;;22.78;32.41
1926;BME280;964;42.606;23.588;2023-04-04T08:58:03;93375.66;;;22.29;32.98
1926;BME280;964;42.606;23.588;2023-04-04T09:00:30;93368.78;;;22.10;32.63
1926;BME280;964;42.606;23.588;2023-04-04T09:03:04;93375.25;;;22.90;32.22
1926;BME280;964;42.606;23.588;2023-04-04T09:05:32;93381.94;;;21.80;32.98
1926;BME280;964;42.606;23.588;2023-04-04T09:08:02;93382.09;;;22.04;32.47
1926;BME280;964;42.606;23.588;2023-04-04T09:10:30;93389.75;;;22.06;32.51
1926;BME280;964;42.606;23.588;2023-04-04T09:12:57;93404.38;;;21.68;32.64
1926;BME280;964;42.606;23.588;2023-04-04T09:15:24;93387.81;;;22.06;32.74
1926;BME280;964;42.606;23.588;2023-04-04T09:17:51;93393.81;;;22.28;32.20
1926;BME280;964;42.606;23.588;2023-04-04T09:23:42;93398.44;;;22.00;32.63
1926;BME280;964;42.606;23.588;2023-04-04T09:26:09;93389.72;;;21.87;32.77
1926;BME280;964;42.606;23.588;2023-04-04T09:28:37;93393.91;;;22.70;31.79
1926;BME280;964;42.606;23.588;2023-04-04T09:31:07;93397.94;;;22.57;31.76
1926;BME280;964;42.606;23.588;2023-04-04T09:33:34;93399.91;;;22.56;31.41
1926;BME280;964;42.606;23.588;2023-04-04T09:36:03;93404.38;;;22.59;31.81
1926;BME280;964;42.606;23.588;2023-04-04T09:38:35;93395.72;;;23.48;30.96
1926;BME280;964;42.606;23.588;2023-04-04T09:41:05;93409.53;;;22.21;32.16
1926;BME280;964;42.606;23.588;2023-04-04T09:43:34;93421.00;;;22.85;31.22
1926;BME280;964;42.606;23.588;2023-04-04T09:46:02;93411.19;;;23.48;30.33
1926;BME280;964;42.606;23.588;2023-04-04T09:48:31;93412.78;;;22.79;31.24
1926;BME280;964;42.606;23.588;2023-04-04T09:50:59;93421.47;;;21.83;32.08
1926;BME280;964;42.606;23.588;2023-04-04T09:53:26;93420.25;;;22.84;31.04
1926;BME280;964;42.606;23.588;2023-04-04T09:55:54;93420.91;;;22.70;31.03
1926;BME280;964;42.606;23.588;2023-04-04T09:58:25;93423.31;;;22.68;31.00
1926;BME280;964;42.606;23.588;2023-04-04T10:00:54;93427.50;;;22.78;30.68
1926;BME280;964;42.606;23.588;2023-04-04T10:03:22;93426.19;;;23.07;30.83
1926;BME280;964;42.606;23.588;2023-04-04T10:05:54;93428.34;;;22.93;30.72
1926;BME280;964;42.606;23.588;2023-04-04T10:08:22;93424.72;;;23.06;30.93
1926;BME280;964;42.606;23.588;2023-04-04T10:10:49;93429.91;;;22.67;30.68
1926;BME280;964;42.606;23.588;2023-04-04T10:13:23;93425.97;;;22.86;30.50
1926;BME280;964;42.606;23.588;2023-04-04T10:15:51;93425.91;;;23.05;30.52
1926;BME280;964;42.606;23.588;2023-04-04T10:18:18;93439.78;;;22.79;30.88
1926;BME280;964;42.606;23.588;2023-04-04T10:20:48;93432.38;;;23.49;30.05
1926;BME280;964;42.606;23.588;2023-04-04T10:23:15;93440.88;;;23.24;30.68
1926;BME280;964;42.606;23.588;2023-04-04T10:25:41;93444.34;;;23.15;30.49
1926;BME280;964;42.606;23.588;2023-04-04T10:28:09;93441.75;;;23.21;30.41
1926;BME280;964;42.606;23.588;2023-04-04T10:30:41;93437.81;;;24.20;29.25
1926;BME280;964;42.606;23.588;2023-04-04T10:33:09;93449.66;;;22.91;30.06
1926;BME280;964;42.606;23.588;2023-04-04T10:35:43;93457.16;;;21.78;31.46
1926;BME280;964;42.606;23.588;2023-04-04T10:38:13;93462.47;;;22.55;30.78
1926;BME280;964;42.606;23.588;2023-04-04T10:40:41;93462.97;;;23.13;30.23
1926;BME280;964;42.606;23.588;2023-04-04T10:43:10;93470.41;;;22.67;30.17
1926;BME280;964;42.606;23.588;2023-04-04T10:45:39;93475.94;;;22.82;30.37
1926;BME280;964;42.606;23.588;2023-04-04T10:48:06;93463.03;;;22.22;30.84
1926;BME280;964;42.606;23.588;2023-04-04T10:50:34;93466.66;;;22.46;30.59
1926;BME280;964;42.606;23.588;2023-04-04T10:53:01;93477.00;;;22.39;30.23
1926;BME280;964;42.606;23.588;2023-04-04T10:55:29;93473.13;;;22.76;30.08
1926;BME280;964;42.606;23.588;2023-04-04T10:57:57;93472.78;;;22.56;29.98
1926;BME280;964;42.606;23.588;2023-04-04T11:00:24;93479.28;;;22.68;30.18
1926;BME280;964;42.606;23.588;2023-04-04T11:02:54;93474.25;;;23.03;30.13
1926;BME280;964;42.606;23.588;2023-04-04T11:05:23;93477.44;;;23.52;29.72
1926;BME280;964;42.606;23.588;2023-04-04T11:07:53;93476.06;;;22.96;30.12
1926;BME280;964;42.606;23.588;2023-04-04T11:10:22;93475.28;;;23.14;29.87
1926;BME280;964;42.606;23.588;2023-04-04T11:12:54;93483.91;;;22.22;30.03
1926;BME280;964;42.606;23.588;2023-04-04T11:15:23;93482.84;;;23.52;29.44
1926;BME280;964;42.606;23.588;2023-04-04T11:17:57;93470.97;;;24.30;28.50
1926;BME280;964;42.606;23.588;2023-04-04T11:20:31;93482.53;;;23.83;29.30
1926;BME280;964;42.606;23.588;2023-04-04T11:23:03;93481.47;;;24.37;28.51
1926;BME280;964;42.606;23.588;2023-04-04T11:25:37;93484.66;;;23.46;28.86
1926;BME280;964;42.606;23.588;2023-04-04T11:28:11;93486.97;;;23.71;29.14
1926;BME280;964;42.606;23.588;2023-04-04T11:30:41;93484.16;;;23.89;28.58
1926;BME280;964;42.606;23.588;2023-04-04T11:33:24;93496.81;;;22.45;30.04
1926;BME280;964;42.606;23.588;2023-04-04T11:35:57;93495.00;;;22.87;29.66
1926;BME280;964;42.606;23.588;2023-04-04T11:38:25;93497.75;;;21.84;30.63
1926;BME280;964;42.606;23.588;2023-04-04T11:40:54;93497.50;;;21.91;30.75
1926;BME280;964;42.606;23.588;2023-04-04T11:43:21;93501.09;;;21.97;30.16
1926;BME280;964;42.606;23.588;2023-04-04T11:45:49;93495.00;;;22.60;30.19
1926;BME280;964;42.606;23.588;2023-04-04T11:48:18;93502.78;;;22.31;29.99
1926;BME280;964;42.606;23.588;2023-04-04T11:50:47;93499.81;;;22.65;30.14
1926;BME280;964;42.606;23.588;2023-04-04T11:53:17;93505.63;;;22.27;30.37
1926;BME280;964;42.606;23.588;2023-04-04T11:55:48;93499.19;;;22.07;30.13
1926;BME280;964;42.606;23.588;2023-04-04T11:58:16;93494.09;;;22.81;29.66
1926;BME280;964;42.606;23.588;2023-04-04T12:00:44;93479.31;;;21.82;30.31
1926;BME280;964;42.606;23.588;2023-04-04T12:03:15;93491.41;;;22.63;30.00
1926;BME280;964;42.606;23.588;2023-04-04T12:05:45;93498.72;;;23.08;29.64
1926;BME280;964;42.606;23.588;2023-04-04T12:08:13;93488.41;;;23.49;29.03
1926;BME280;964;42.606;23.588;2023-04-04T12:10:40;93501.59;;;22.14;30.84
1926;BME280;964;42.606;23.588;2023-04-04T12:13:08;93502.22;;;22.81;30.19
1926;BME280;964;42.606;23.588;2023-04-04T12:15:36;93503.41;;;22.53;30.61
1926;BME280;964;42.606;23.588;2023-04-04T12:18:05;93519.19;;;21.87;30.68
1926;BME280;964;42.606;23.588;2023-04-04T12:20:32;93508.81;;;22.26;30.55
1926;BME280;964;42.606;23.588;2023-04-04T12:23:01;93505.41;;;21.85;31.14
1926;BME280;964;42.606;23.588;2023-04-04T12:25:29;93510.03;;;22.79;29.80
1926;BME280;964;42.606;23.588;2023-04-04T12:27:58;93510.28;;;21.69;31.25
1926;BME280;964;42.606;23.588;2023-04-04T12:30:26;93503.91;;;21.84;30.89
1926;BME280;964;42.606;23.588;2023-04-04T12:32:53;93502.34;;;22.41;30.24
1926;BME280;964;42.606;23.588;2023-04-04T12:35:20;93523.84;;;20.94;31.51
1926;BME280;964;42.606;23.588;2023-04-04T12:37:56;93512.69;;;22.88;30.13
1926;BME280;964;42.606;23.588;2023-04-04T12:40:31;93508.63;;;23.62;29.16
1926;BME280;964;42.606;23.588;2023-04-04T12:42:58;93510.00;;;22.88;30.17
1926;BME280;964;42.606;23.588;2023-04-04T12:45:26;93510.50;;;22.69;29.91
1926;BME280;964;42.606;23.588;2023-04-04T12:47:55;93509.84;;;22.92;29.58
1926;BME280;964;42.606;23.588;2023-04-04T12:50:23;93509.16;;;23.75;28.85
1926;BME280;964;42.606;23.588;2023-04-04T12:52:51;93515.41;;;22.88;29.07
1926;BME280;964;42.606;23.588;2023-04-04T12:55:19;93526.34;;;22.39;29.85
1926;BME280;964;42.606;23.588;2023-04-04T12:57:48;93524.31;;;23.40;29.08
1926;BME280;964;42.606;23.588;2023-04-04T13:00:16;93525.19;;;23.55;29.09
1926;BME280;964;42.606;23.588;2023-04-04T13:02:45;93533.03;;;23.35;28.98
1926;BME280;964;42.606;23.588;2023-04-04T13:05:15;93539.97;;;22.27;29.81
1926;BME280;964;42.606;23.588;2023-04-04T13:07:43;93535.41;;;22.73;29.58
1926;BME280;964;42.606;23.588;2023-04-04T13:10:11;93547.88;;;21.63;30.75
1926;BME280;964;42.606;23.588;2023-04-04T13:12:57;93550.34;;;21.18;31.38
1926;BME280;964;42.606;23.588;2023-04-04T13:15:48;93557.78;;;20.92;31.72
1926;BME280;964;42.606;23.588;2023-04-04T13:18:16;93565.53;;;21.64;30.83
1926;BME280;964;42.606;23.588;2023-04-04T13:20:45;93570.53;;;21.44;30.66
1926;BME280;964;42.606;23.588;2023-04-04T13:23:12;93566.72;;;21.94;30.02
1926;BME280;964;42.606;23.588;2023-04-04T13:25:38;93570.69;;;21.80;30.21
1926;BME280;964;42.606;23.588;2023-04-04T13:28:07;93565.97;;;21.93;30.04
1926;BME280;964;42.606;23.588;2023-04-04T13:30:35;93586.41;;;21.42;30.94
1926;BME280;964;42.606;23.588;2023-04-04T13:33:03;93574.53;;;22.01;29.62